Portada
METAR-TAF:

METAR-TAF

Aeropuertos :

St. Charles County Airport (Smart Field)

Saint Charles, Misuri, Estados Unidos

latitud: 38-55-50N, longitud: 090-25-57W, altitud: 133 m

Observación

El informe se hizo hace 16 minutos, a las 08:28 UTC
Viento 4 kt del oeste-noroeste
Temperatura 22°C
Humedad 94%
Presión 1015 hPa
Visibilidad: 2.8 km
Cielo nuboso a una altura de 200 ft
neblina

METAR: KSET 060828Z AUTO 30004KT 1 3/4SM BR BKN002 22/21 A2996 RMK AO2 VIS 1V5 T02170206

Hora: 03:44 (08:44 UTC)


TAF: falta

Observaciones y pronósticos meteorológicos de más de 4000 aeropuertos (mensajes METAR y TAF).

Los puntos amarillos y rojos representan las estaciones disponibles.

Ponga el ratón en el punto deseado para ver el nombre de la estación.

Haga clic para ver las observaciones y los pronósticos meteorológicos.

Para cambiar el mapa : haga clic en los botones verdes con una cruz de color negro para hacer un zoom, en el botón verde con un guión para alejar o en las flechas verdes para mapas adyacentes.


METAR-TAF: